sensor_id;sensor_type;location;lat;lon;timestamp;P1;durP1;ratioP1;P2;durP2;ratioP2
61356;SDS011;47227;46.752;23.576;2023-04-06T00:01:57;6.80;;;3.90;;
61356;SDS011;47227;46.752;23.576;2023-04-06T00:04:25;6.00;;;4.10;;
61356;SDS011;47227;46.752;23.576;2023-04-06T00:06:54;4.70;;;3.90;;
61356;SDS011;47227;46.752;23.576;2023-04-06T00:09:22;7.30;;;4.40;;
61356;SDS011;47227;46.752;23.576;2023-04-06T00:11:50;5.00;;;4.20;;
61356;SDS011;47227;46.752;23.576;2023-04-06T00:14:18;5.80;;;4.10;;
61356;SDS011;47227;46.752;23.576;2023-04-06T00:16:46;6.10;;;4.40;;
61356;SDS011;47227;46.752;23.576;2023-04-06T00:19:14;6.10;;;4.20;;
61356;SDS011;47227;46.752;23.576;2023-04-06T00:21:42;6.10;;;4.00;;
61356;SDS011;47227;46.752;23.576;2023-04-06T00:24:10;7.40;;;4.40;;
61356;SDS011;47227;46.752;23.576;2023-04-06T00:26:38;5.20;;;4.00;;
61356;SDS011;47227;46.752;23.576;2023-04-06T00:29:06;5.30;;;4.20;;
61356;SDS011;47227;46.752;23.576;2023-04-06T00:31:35;7.60;;;4.60;;
61356;SDS011;47227;46.752;23.576;2023-04-06T00:34:03;7.70;;;4.60;;
61356;SDS011;47227;46.752;23.576;2023-04-06T00:36:31;7.20;;;4.50;;
61356;SDS011;47227;46.752;23.576;2023-04-06T00:38:58;6.70;;;4.40;;
61356;SDS011;47227;46.752;23.576;2023-04-06T00:41:27;4.90;;;3.70;;
61356;SDS011;47227;46.752;23.576;2023-04-06T00:43:55;5.50;;;4.00;;
61356;SDS011;47227;46.752;23.576;2023-04-06T00:46:24;4.90;;;4.40;;
61356;SDS011;47227;46.752;23.576;2023-04-06T00:48:52;4.30;;;3.60;;
61356;SDS011;47227;46.752;23.576;2023-04-06T00:51:20;5.80;;;4.60;;
61356;SDS011;47227;46.752;23.576;2023-04-06T00:53:48;5.70;;;4.10;;
61356;SDS011;47227;46.752;23.576;2023-04-06T00:56:17;6.30;;;4.20;;
61356;SDS011;47227;46.752;23.576;2023-04-06T00:58:49;5.70;;;3.60;;
61356;SDS011;47227;46.752;23.576;2023-04-06T01:01:18;5.70;;;4.00;;
61356;SDS011;47227;46.752;23.576;2023-04-06T01:03:48;4.90;;;3.80;;
61356;SDS011;47227;46.752;23.576;2023-04-06T01:06:17;5.60;;;4.00;;
61356;SDS011;47227;46.752;23.576;2023-04-06T01:08:50;6.40;;;3.60;;
61356;SDS011;47227;46.752;23.576;2023-04-06T01:11:21;4.30;;;3.70;;
61356;SDS011;47227;46.752;23.576;2023-04-06T01:13:50;5.60;;;4.20;;
61356;SDS011;47227;46.752;23.576;2023-04-06T01:19:08;6.80;;;4.30;;
61356;SDS011;47227;46.752;23.576;2023-04-06T01:21:40;6.00;;;4.10;;
61356;SDS011;47227;46.752;23.576;2023-04-06T01:24:25;5.80;;;4.60;;
61356;SDS011;47227;46.752;23.576;2023-04-06T01:29:47;4.80;;;4.30;;
61356;SDS011;47227;46.752;23.576;2023-04-06T01:32:20;5.40;;;4.60;;
61356;SDS011;47227;46.752;23.576;2023-04-06T01:34:49;6.70;;;4.10;;
61356;SDS011;47227;46.752;23.576;2023-04-06T01:37:18;6.70;;;4.40;;
61356;SDS011;47227;46.752;23.576;2023-04-06T01:39:46;5.80;;;4.40;;
61356;SDS011;47227;46.752;23.576;2023-04-06T01:42:24;5.70;;;4.40;;
61356;SDS011;47227;46.752;23.576;2023-04-06T01:44:56;5.00;;;3.80;;
61356;SDS011;47227;46.752;23.576;2023-04-06T01:47:24;4.50;;;3.90;;
61356;SDS011;47227;46.752;23.576;2023-04-06T01:49:53;13.00;;;4.20;;
61356;SDS011;47227;46.752;23.576;2023-04-06T01:52:22;10.40;;;4.30;;
61356;SDS011;47227;46.752;23.576;2023-04-06T01:54:52;5.60;;;4.00;;
61356;SDS011;47227;46.752;23.576;2023-04-06T01:57:36;5.50;;;4.20;;
61356;SDS011;47227;46.752;23.576;2023-04-06T02:00:12;5.40;;;4.50;;
61356;SDS011;47227;46.752;23.576;2023-04-06T02:02:43;6.20;;;4.80;;
61356;SDS011;47227;46.752;23.576;2023-04-06T02:05:16;5.30;;;4.00;;
61356;SDS011;47227;46.752;23.576;2023-04-06T02:07:44;6.40;;;4.60;;
61356;SDS011;47227;46.752;23.576;2023-04-06T02:10:14;5.30;;;4.50;;
61356;SDS011;47227;46.752;23.576;2023-04-06T02:12:43;8.30;;;4.50;;
61356;SDS011;47227;46.752;23.576;2023-04-06T02:15:13;5.70;;;4.70;;
61356;SDS011;47227;46.752;23.576;2023-04-06T02:17:42;5.50;;;4.70;;
61356;SDS011;47227;46.752;23.576;2023-04-06T02:20:10;5.20;;;4.30;;
61356;SDS011;47227;46.752;23.576;2023-04-06T02:22:38;5.50;;;4.40;;
61356;SDS011;47227;46.752;23.576;2023-04-06T02:25:07;6.20;;;4.60;;
61356;SDS011;47227;46.752;23.576;2023-04-06T02:27:35;7.00;;;4.70;;
61356;SDS011;47227;46.752;23.576;2023-04-06T02:30:04;5.10;;;4.50;;
61356;SDS011;47227;46.752;23.576;2023-04-06T02:32:32;7.80;;;4.70;;
61356;SDS011;47227;46.752;23.576;2023-04-06T02:35:01;10.60;;;4.40;;
61356;SDS011;47227;46.752;23.576;2023-04-06T02:37:29;6.50;;;4.60;;
61356;SDS011;47227;46.752;23.576;2023-04-06T02:39:59;5.30;;;4.20;;
61356;SDS011;47227;46.752;23.576;2023-04-06T02:42:27;5.60;;;4.20;;
61356;SDS011;47227;46.752;23.576;2023-04-06T02:44:55;6.70;;;4.40;;
61356;SDS011;47227;46.752;23.576;2023-04-06T02:47:25;4.80;;;4.10;;
61356;SDS011;47227;46.752;23.576;2023-04-06T02:49:53;7.00;;;4.50;;
61356;SDS011;47227;46.752;23.576;2023-04-06T02:52:21;5.70;;;4.40;;
61356;SDS011;47227;46.752;23.576;2023-04-06T02:54:50;5.80;;;4.40;;
61356;SDS011;47227;46.752;23.576;2023-04-06T02:57:23;5.20;;;4.30;;
61356;SDS011;47227;46.752;23.576;2023-04-06T02:59:52;6.50;;;4.50;;
61356;SDS011;47227;46.752;23.576;2023-04-06T03:02:24;5.90;;;4.70;;
61356;SDS011;47227;46.752;23.576;2023-04-06T03:04:54;6.70;;;5.10;;
61356;SDS011;47227;46.752;23.576;2023-04-06T03:07:27;6.70;;;5.00;;
61356;SDS011;47227;46.752;23.576;2023-04-06T03:09:58;8.50;;;5.30;;
61356;SDS011;47227;46.752;23.576;2023-04-06T03:12:26;7.30;;;5.20;;
61356;SDS011;47227;46.752;23.576;2023-04-06T03:15:09;6.50;;;5.20;;
61356;SDS011;47227;46.752;23.576;2023-04-06T03:17:39;7.00;;;5.20;;
61356;SDS011;47227;46.752;23.576;2023-04-06T03:20:09;9.00;;;4.70;;
61356;SDS011;47227;46.752;23.576;2023-04-06T03:22:37;6.00;;;5.00;;
61356;SDS011;47227;46.752;23.576;2023-04-06T03:25:06;9.40;;;5.40;;
61356;SDS011;47227;46.752;23.576;2023-04-06T03:27:34;6.50;;;5.20;;
61356;SDS011;47227;46.752;23.576;2023-04-06T03:30:04;7.30;;;5.80;;
61356;SDS011;47227;46.752;23.576;2023-04-06T03:32:37;8.70;;;5.80;;
61356;SDS011;47227;46.752;23.576;2023-04-06T03:35:06;8.80;;;5.80;;
61356;SDS011;47227;46.752;23.576;2023-04-06T03:37:34;8.60;;;6.60;;
61356;SDS011;47227;46.752;23.576;2023-04-06T03:40:03;11.90;;;6.30;;
61356;SDS011;47227;46.752;23.576;2023-04-06T03:42:33;9.50;;;6.70;;
61356;SDS011;47227;46.752;23.576;2023-04-06T03:45:05;8.30;;;5.70;;
61356;SDS011;47227;46.752;23.576;2023-04-06T03:47:34;15.10;;;8.30;;
61356;SDS011;47227;46.752;23.576;2023-04-06T03:50:04;8.10;;;6.00;;
61356;SDS011;47227;46.752;23.576;2023-04-06T03:52:34;8.00;;;5.70;;
61356;SDS011;47227;46.752;23.576;2023-04-06T03:55:03;10.50;;;6.90;;
61356;SDS011;47227;46.752;23.576;2023-04-06T03:57:32;5.70;;;4.90;;
61356;SDS011;47227;46.752;23.576;2023-04-06T04:00:00;8.00;;;5.90;;
61356;SDS011;47227;46.752;23.576;2023-04-06T04:02:28;7.30;;;5.30;;
61356;SDS011;47227;46.752;23.576;2023-04-06T04:04:56;7.50;;;5.50;;
61356;SDS011;47227;46.752;23.576;2023-04-06T04:07:24;9.00;;;6.30;;
61356;SDS011;47227;46.752;23.576;2023-04-06T04:09:52;8.90;;;5.70;;
61356;SDS011;47227;46.752;23.576;2023-04-06T04:12:20;8.90;;;5.80;;
61356;SDS011;47227;46.752;23.576;2023-04-06T04:14:48;7.30;;;5.10;;
61356;SDS011;47227;46.752;23.576;2023-04-06T04:17:16;9.20;;;6.00;;
61356;SDS011;47227;46.752;23.576;2023-04-06T04:19:45;7.60;;;5.90;;
61356;SDS011;47227;46.752;23.576;2023-04-06T04:27:03;13.20;;;5.70;;
61356;SDS011;47227;46.752;23.576;2023-04-06T04:34:04;8.70;;;5.70;;
61356;SDS011;47227;46.752;23.576;2023-04-06T04:37:43;8.00;;;5.60;;
61356;SDS011;47227;46.752;23.576;2023-04-06T04:41:26;6.70;;;5.50;;
61356;SDS011;47227;46.752;23.576;2023-04-06T04:45:12;7.80;;;5.00;;
61356;SDS011;47227;46.752;23.576;2023-04-06T04:48:48;13.50;;;6.20;;
61356;SDS011;47227;46.752;23.576;2023-04-06T04:52:32;8.50;;;6.40;;
61356;SDS011;47227;46.752;23.576;2023-04-06T04:56:27;8.00;;;6.10;;
61356;SDS011;47227;46.752;23.576;2023-04-06T05:00:00;8.20;;;6.50;;
61356;SDS011;47227;46.752;23.576;2023-04-06T05:03:54;13.20;;;9.50;;
61356;SDS011;47227;46.752;23.576;2023-04-06T05:11:42;7.00;;;5.70;;
61356;SDS011;47227;46.752;23.576;2023-04-06T05:15:17;8.40;;;6.30;;
61356;SDS011;47227;46.752;23.576;2023-04-06T05:19:17;10.60;;;6.90;;
61356;SDS011;47227;46.752;23.576;2023-04-06T05:22:24;8.50;;;6.20;;
61356;SDS011;47227;46.752;23.576;2023-04-06T05:25:15;9.90;;;7.00;;
61356;SDS011;47227;46.752;23.576;2023-04-06T05:28:32;7.80;;;6.50;;
61356;SDS011;47227;46.752;23.576;2023-04-06T05:31:03;7.60;;;6.80;;
61356;SDS011;47227;46.752;23.576;2023-04-06T05:33:52;9.00;;;6.70;;
61356;SDS011;47227;46.752;23.576;2023-04-06T05:36:34;10.40;;;7.00;;
61356;SDS011;47227;46.752;23.576;2023-04-06T05:40:03;8.00;;;6.20;;
61356;SDS011;47227;46.752;23.576;2023-04-06T05:43:50;8.10;;;5.60;;
61356;SDS011;47227;46.752;23.576;2023-04-06T05:47:57;7.30;;;6.10;;
61356;SDS011;47227;46.752;23.576;2023-04-06T05:51:41;9.70;;;7.00;;
61356;SDS011;47227;46.752;23.576;2023-04-06T05:55:11;11.00;;;6.60;;
61356;SDS011;47227;46.752;23.576;2023-04-06T06:01:32;9.80;;;6.90;;
61356;SDS011;47227;46.752;23.576;2023-04-06T06:09:08;9.20;;;6.50;;
61356;SDS011;47227;46.752;23.576;2023-04-06T06:12:24;10.10;;;6.70;;
61356;SDS011;47227;46.752;23.576;2023-04-06T06:16:01;8.40;;;5.80;;
61356;SDS011;47227;46.752;23.576;2023-04-06T06:23:29;8.60;;;6.80;;
61356;SDS011;47227;46.752;23.576;2023-04-06T06:36:19;9.10;;;4.90;;
61356;SDS011;47227;46.752;23.576;2023-04-06T06:39:12;8.30;;;6.10;;
61356;SDS011;47227;46.752;23.576;2023-04-06T06:42:11;10.10;;;5.50;;
61356;SDS011;47227;46.752;23.576;2023-04-06T06:54:12;9.20;;;6.20;;
61356;SDS011;47227;46.752;23.576;2023-04-06T06:57:48;9.50;;;5.30;;
61356;SDS011;47227;46.752;23.576;2023-04-06T07:02:06;6.60;;;4.80;;
61356;SDS011;47227;46.752;23.576;2023-04-06T07:05:18;6.40;;;4.90;;
61356;SDS011;47227;46.752;23.576;2023-04-06T07:08:54;6.60;;;4.90;;
61356;SDS011;47227;46.752;23.576;2023-04-06T07:11:53;8.60;;;5.80;;
61356;SDS011;47227;46.752;23.576;2023-04-06T07:14:44;6.10;;;4.80;;
61356;SDS011;47227;46.752;23.576;2023-04-06T07:17:17;5.90;;;5.00;;
61356;SDS011;47227;46.752;23.576;2023-04-06T07:19:54;7.10;;;5.20;;
61356;SDS011;47227;46.752;23.576;2023-04-06T07:22:28;8.90;;;5.80;;
61356;SDS011;47227;46.752;23.576;2023-04-06T07:25:05;7.70;;;6.40;;
61356;SDS011;47227;46.752;23.576;2023-04-06T07:28:15;9.30;;;6.80;;
61356;SDS011;47227;46.752;23.576;2023-04-06T07:31:40;8.00;;;6.70;;
61356;SDS011;47227;46.752;23.576;2023-04-06T07:34:41;9.80;;;6.00;;
61356;SDS011;47227;46.752;23.576;2023-04-06T07:37:10;6.40;;;5.50;;
61356;SDS011;47227;46.752;23.576;2023-04-06T07:39:40;7.80;;;5.00;;
61356;SDS011;47227;46.752;23.576;2023-04-06T07:42:31;9.20;;;6.50;;
61356;SDS011;47227;46.752;23.576;2023-04-06T07:45:01;6.00;;;5.20;;
61356;SDS011;47227;46.752;23.576;2023-04-06T07:47:30;5.70;;;4.90;;
61356;SDS011;47227;46.752;23.576;2023-04-06T07:49:58;5.90;;;5.00;;
61356;SDS011;47227;46.752;23.576;2023-04-06T07:52:27;7.50;;;5.70;;
61356;SDS011;47227;46.752;23.576;2023-04-06T07:54:55;6.80;;;5.50;;
61356;SDS011;47227;46.752;23.576;2023-04-06T07:57:27;8.80;;;6.40;;
61356;SDS011;47227;46.752;23.576;2023-04-06T08:01:21;8.70;;;5.80;;
61356;SDS011;47227;46.752;23.576;2023-04-06T08:07:46;5.70;;;5.10;;
61356;SDS011;47227;46.752;23.576;2023-04-06T08:15:18;9.10;;;5.80;;
61356;SDS011;47227;46.752;23.576;2023-04-06T08:18:57;8.20;;;5.40;;
61356;SDS011;47227;46.752;23.576;2023-04-06T08:22:13;7.20;;;5.50;;
61356;SDS011;47227;46.752;23.576;2023-04-06T08:24:46;7.00;;;5.20;;
61356;SDS011;47227;46.752;23.576;2023-04-06T08:29:13;7.20;;;4.60;;
61356;SDS011;47227;46.752;23.576;2023-04-06T08:32:06;9.60;;;6.30;;
61356;SDS011;47227;46.752;23.576;2023-04-06T08:38:58;7.40;;;5.10;;
61356;SDS011;47227;46.752;23.576;2023-04-06T08:42:25;6.90;;;5.70;;
61356;SDS011;47227;46.752;23.576;2023-04-06T08:45:38;7.90;;;5.30;;
61356;SDS011;47227;46.752;23.576;2023-04-06T08:48:50;6.70;;;5.60;;
61356;SDS011;47227;46.752;23.576;2023-04-06T08:52:13;7.50;;;5.10;;
61356;SDS011;47227;46.752;23.576;2023-04-06T08:54:51;7.00;;;5.60;;
61356;SDS011;47227;46.752;23.576;2023-04-06T09:01:14;9.80;;;5.60;;
61356;SDS011;47227;46.752;23.576;2023-04-06T09:04:59;10.60;;;6.60;;
61356;SDS011;47227;46.752;23.576;2023-04-06T09:07:41;6.00;;;5.30;;
61356;SDS011;47227;46.752;23.576;2023-04-06T09:10:16;7.10;;;5.80;;
61356;SDS011;47227;46.752;23.576;2023-04-06T09:13:50;6.90;;;5.60;;
61356;SDS011;47227;46.752;23.576;2023-04-06T09:17:00;6.60;;;4.30;;
61356;SDS011;47227;46.752;23.576;2023-04-06T09:19:54;4.90;;;4.20;;
61356;SDS011;47227;46.752;23.576;2023-04-06T09:34:01;6.00;;;5.30;;
61356;SDS011;47227;46.752;23.576;2023-04-06T09:37:31;6.50;;;4.90;;
61356;SDS011;47227;46.752;23.576;2023-04-06T09:40:17;5.10;;;4.40;;
61356;SDS011;47227;46.752;23.576;2023-04-06T09:43:41;5.90;;;4.80;;
61356;SDS011;47227;46.752;23.576;2023-04-06T09:47:42;5.90;;;5.00;;
61356;SDS011;47227;46.752;23.576;2023-04-06T09:51:34;7.30;;;5.30;;
61356;SDS011;47227;46.752;23.576;2023-04-06T09:54:45;6.20;;;4.90;;
61356;SDS011;47227;46.752;23.576;2023-04-06T09:57:32;4.60;;;4.10;;
61356;SDS011;47227;46.752;23.576;2023-04-06T10:01:46;5.30;;;4.80;;
61356;SDS011;47227;46.752;23.576;2023-04-06T10:04:27;6.30;;;5.10;;
61356;SDS011;47227;46.752;23.576;2023-04-06T10:07:04;4.80;;;4.20;;
61356;SDS011;47227;46.752;23.576;2023-04-06T10:09:56;5.30;;;4.80;;
61356;SDS011;47227;46.752;23.576;2023-04-06T10:13:03;6.70;;;5.20;;
61356;SDS011;47227;46.752;23.576;2023-04-06T10:15:35;5.00;;;4.50;;
61356;SDS011;47227;46.752;23.576;2023-04-06T10:19:20;5.30;;;4.80;;
61356;SDS011;47227;46.752;23.576;2023-04-06T10:27:01;5.40;;;4.90;;
61356;SDS011;47227;46.752;23.576;2023-04-06T10:30:25;6.80;;;5.20;;
61356;SDS011;47227;46.752;23.576;2023-04-06T10:33:57;5.50;;;5.00;;
61356;SDS011;47227;46.752;23.576;2023-04-06T10:41:21;5.50;;;4.90;;
61356;SDS011;47227;46.752;23.576;2023-04-06T10:45:22;5.10;;;4.60;;
61356;SDS011;47227;46.752;23.576;2023-04-06T10:48:39;5.60;;;4.40;;
61356;SDS011;47227;46.752;23.576;2023-04-06T10:51:19;5.30;;;4.40;;
61356;SDS011;47227;46.752;23.576;2023-04-06T10:54:36;7.80;;;5.30;;
61356;SDS011;47227;46.752;23.576;2023-04-06T11:00:43;4.90;;;4.30;;
61356;SDS011;47227;46.752;23.576;2023-04-06T11:04:15;7.20;;;4.20;;
61356;SDS011;47227;46.752;23.576;2023-04-06T11:07:07;5.10;;;4.50;;
61356;SDS011;47227;46.752;23.576;2023-04-06T11:10:39;4.10;;;3.70;;
61356;SDS011;47227;46.752;23.576;2023-04-06T11:21:01;3.20;;;2.90;;
61356;SDS011;47227;46.752;23.576;2023-04-06T11:33:21;4.70;;;4.20;;
61356;SDS011;47227;46.752;23.576;2023-04-06T11:39:30;5.00;;;4.20;;
61356;SDS011;47227;46.752;23.576;2023-04-06T11:43:46;3.40;;;3.10;;
61356;SDS011;47227;46.752;23.576;2023-04-06T11:51:06;3.10;;;2.80;;
61356;SDS011;47227;46.752;23.576;2023-04-06T11:54:42;3.90;;;3.30;;
61356;SDS011;47227;46.752;23.576;2023-04-06T11:58:12;3.20;;;2.80;;
61356;SDS011;47227;46.752;23.576;2023-04-06T12:01:44;6.00;;;3.70;;
61356;SDS011;47227;46.752;23.576;2023-04-06T12:04:56;4.20;;;3.80;;
61356;SDS011;47227;46.752;23.576;2023-04-06T12:38:37;4.10;;;3.10;;
61356;SDS011;47227;46.752;23.576;2023-04-06T12:44:59;3.20;;;2.90;;
61356;SDS011;47227;46.752;23.576;2023-04-06T12:49:06;2.50;;;2.30;;
61356;SDS011;47227;46.752;23.576;2023-04-06T12:55:41;2.90;;;2.60;;
61356;SDS011;47227;46.752;23.576;2023-04-06T12:58:59;2.60;;;2.40;;
61356;SDS011;47227;46.752;23.576;2023-04-06T13:02:20;2.90;;;2.70;;
61356;SDS011;47227;46.752;23.576;2023-04-06T13:08:47;2.50;;;2.30;;
61356;SDS011;47227;46.752;23.576;2023-04-06T13:12:06;3.20;;;2.90;;
61356;SDS011;47227;46.752;23.576;2023-04-06T13:15:19;4.60;;;3.20;;
61356;SDS011;47227;46.752;23.576;2023-04-06T13:19:00;2.90;;;2.60;;
61356;SDS011;47227;46.752;23.576;2023-04-06T13:22:46;3.00;;;2.50;;
61356;SDS011;47227;46.752;23.576;2023-04-06T13:29:37;2.40;;;2.20;;
61356;SDS011;47227;46.752;23.576;2023-04-06T13:36:21;3.30;;;2.40;;
61356;SDS011;47227;46.752;23.576;2023-04-06T13:39:22;3.50;;;3.10;;
61356;SDS011;47227;46.752;23.576;2023-04-06T13:42:57;2.50;;;2.10;;
61356;SDS011;47227;46.752;23.576;2023-04-06T13:46:37;3.80;;;2.40;;
61356;SDS011;47227;46.752;23.576;2023-04-06T13:50:53;2.70;;;2.50;;
61356;SDS011;47227;46.752;23.576;2023-04-06T13:54:36;1.90;;;1.70;;
61356;SDS011;47227;46.752;23.576;2023-04-06T13:57:44;2.30;;;2.00;;
61356;SDS011;47227;46.752;23.576;2023-04-06T14:00:13;2.40;;;2.20;;
61356;SDS011;47227;46.752;23.576;2023-04-06T14:03:44;2.40;;;1.80;;
61356;SDS011;47227;46.752;23.576;2023-04-06T14:06:53;2.50;;;2.30;;
61356;SDS011;47227;46.752;23.576;2023-04-06T14:10:07;2.70;;;2.50;;
61356;SDS011;47227;46.752;23.576;2023-04-06T14:12:46;3.20;;;2.40;;
61356;SDS011;47227;46.752;23.576;2023-04-06T14:15:17;3.90;;;2.60;;
61356;SDS011;47227;46.752;23.576;2023-04-06T14:17:50;3.20;;;2.20;;
61356;SDS011;47227;46.752;23.576;2023-04-06T14:20:41;3.10;;;2.70;;
61356;SDS011;47227;46.752;23.576;2023-04-06T14:23:13;2.30;;;2.10;;
61356;SDS011;47227;46.752;23.576;2023-04-06T14:25:43;3.70;;;2.30;;
61356;SDS011;47227;46.752;23.576;2023-04-06T14:28:20;4.00;;;3.10;;
61356;SDS011;47227;46.752;23.576;2023-04-06T14:30:48;3.00;;;2.50;;
61356;SDS011;47227;46.752;23.576;2023-04-06T14:33:19;2.60;;;2.40;;
61356;SDS011;47227;46.752;23.576;2023-04-06T14:35:50;2.90;;;2.20;;
61356;SDS011;47227;46.752;23.576;2023-04-06T14:38:21;2.90;;;2.30;;
61356;SDS011;47227;46.752;23.576;2023-04-06T14:40:49;3.60;;;2.90;;
61356;SDS011;47227;46.752;23.576;2023-04-06T14:43:18;2.80;;;2.60;;
61356;SDS011;47227;46.752;23.576;2023-04-06T14:45:47;3.20;;;2.60;;
61356;SDS011;47227;46.752;23.576;2023-04-06T14:48:16;3.20;;;2.40;;
61356;SDS011;47227;46.752;23.576;2023-04-06T14:50:53;4.00;;;2.20;;
61356;SDS011;47227;46.752;23.576;2023-04-06T14:53:22;2.30;;;2.00;;
61356;SDS011;47227;46.752;23.576;2023-04-06T14:55:56;2.90;;;2.60;;
61356;SDS011;47227;46.752;23.576;2023-04-06T14:58:26;2.20;;;2.00;;
61356;SDS011;47227;46.752;23.576;2023-04-06T15:00:59;4.10;;;3.30;;
61356;SDS011;47227;46.752;23.576;2023-04-06T15:03:29;2.50;;;2.30;;
61356;SDS011;47227;46.752;23.576;2023-04-06T15:06:00;3.10;;;2.50;;
61356;SDS011;47227;46.752;23.576;2023-04-06T15:08:30;3.50;;;3.20;;
61356;SDS011;47227;46.752;23.576;2023-04-06T15:11:19;2.90;;;2.70;;
61356;SDS011;47227;46.752;23.576;2023-04-06T15:13:48;3.20;;;2.70;;
61356;SDS011;47227;46.752;23.576;2023-04-06T15:16:17;2.60;;;2.40;;
61356;SDS011;47227;46.752;23.576;2023-04-06T15:18:49;2.30;;;2.10;;
61356;SDS011;47227;46.752;23.576;2023-04-06T15:21:17;5.70;;;4.10;;
61356;SDS011;47227;46.752;23.576;2023-04-06T15:24:05;2.60;;;2.40;;
61356;SDS011;47227;46.752;23.576;2023-04-06T15:26:36;3.60;;;2.80;;
61356;SDS011;47227;46.752;23.576;2023-04-06T15:29:04;2.10;;;1.90;;
61356;SDS011;47227;46.752;23.576;2023-04-06T15:31:33;2.60;;;2.40;;
61356;SDS011;47227;46.752;23.576;2023-04-06T15:34:05;3.50;;;2.50;;
61356;SDS011;47227;46.752;23.576;2023-04-06T15:36:41;3.30;;;3.00;;
61356;SDS011;47227;46.752;23.576;2023-04-06T15:39:11;3.80;;;3.40;;
61356;SDS011;47227;46.752;23.576;2023-04-06T15:41:41;3.20;;;2.90;;
61356;SDS011;47227;46.752;23.576;2023-04-06T15:44:29;2.80;;;2.20;;
61356;SDS011;47227;46.752;23.576;2023-04-06T15:47:19;2.50;;;2.30;;
61356;SDS011;47227;46.752;23.576;2023-04-06T15:56:15;3.00;;;2.60;;
61356;SDS011;47227;46.752;23.576;2023-04-06T16:04:56;3.00;;;2.70;;
61356;SDS011;47227;46.752;23.576;2023-04-06T16:08:11;2.80;;;2.60;;
61356;SDS011;47227;46.752;23.576;2023-04-06T16:12:00;2.50;;;2.30;;
61356;SDS011;47227;46.752;23.576;2023-04-06T16:15:40;3.30;;;3.00;;
61356;SDS011;47227;46.752;23.576;2023-04-06T16:19:22;2.60;;;2.20;;
61356;SDS011;47227;46.752;23.576;2023-04-06T16:23:02;3.50;;;2.50;;
61356;SDS011;47227;46.752;23.576;2023-04-06T16:26:34;3.70;;;3.10;;
61356;SDS011;47227;46.752;23.576;2023-04-06T16:29:46;4.50;;;3.40;;
61356;SDS011;47227;46.752;23.576;2023-04-06T16:40:11;4.40;;;3.40;;
61356;SDS011;47227;46.752;23.576;2023-04-06T16:43:47;3.80;;;3.40;;
61356;SDS011;47227;46.752;23.576;2023-04-06T16:47:33;3.90;;;3.50;;
61356;SDS011;47227;46.752;23.576;2023-04-06T16:50:29;4.00;;;3.70;;
61356;SDS011;47227;46.752;23.576;2023-04-06T16:53:52;6.20;;;4.80;;
61356;SDS011;47227;46.752;23.576;2023-04-06T16:57:56;3.50;;;3.20;;
61356;SDS011;47227;46.752;23.576;2023-04-06T17:05:17;5.00;;;4.30;;
61356;SDS011;47227;46.752;23.576;2023-04-06T17:08:54;3.90;;;3.50;;
61356;SDS011;47227;46.752;23.576;2023-04-06T17:12:27;7.70;;;5.10;;
61356;SDS011;47227;46.752;23.576;2023-04-06T17:16:03;6.80;;;5.00;;
61356;SDS011;47227;46.752;23.576;2023-04-06T17:19:22;5.00;;;4.60;;
61356;SDS011;47227;46.752;23.576;2023-04-06T17:22:53;4.60;;;4.10;;
61356;SDS011;47227;46.752;23.576;2023-04-06T17:26:22;4.70;;;4.30;;
61356;SDS011;47227;46.752;23.576;2023-04-06T17:30:18;5.40;;;4.20;;
61356;SDS011;47227;46.752;23.576;2023-04-06T17:34:18;4.80;;;4.30;;
61356;SDS011;47227;46.752;23.576;2023-04-06T17:38:22;5.20;;;4.70;;
61356;SDS011;47227;46.752;23.576;2023-04-06T17:41:55;5.30;;;4.80;;
61356;SDS011;47227;46.752;23.576;2023-04-06T17:45:35;6.20;;;5.60;;
61356;SDS011;47227;46.752;23.576;2023-04-06T17:49:10;10.00;;;7.60;;
61356;SDS011;47227;46.752;23.576;2023-04-06T17:52:51;7.80;;;6.60;;
61356;SDS011;47227;46.752;23.576;2023-04-06T17:56:11;7.10;;;5.40;;
61356;SDS011;47227;46.752;23.576;2023-04-06T17:59:43;8.00;;;6.90;;
61356;SDS011;47227;46.752;23.576;2023-04-06T18:03:31;6.30;;;5.70;;
61356;SDS011;47227;46.752;23.576;2023-04-06T18:06:59;6.10;;;5.60;;
61356;SDS011;47227;46.752;23.576;2023-04-06T18:10:49;7.80;;;6.90;;
61356;SDS011;47227;46.752;23.576;2023-04-06T18:14:05;8.20;;;6.70;;
61356;SDS011;47227;46.752;23.576;2023-04-06T18:17:52;8.40;;;7.40;;
61356;SDS011;47227;46.752;23.576;2023-04-06T18:21:33;6.80;;;6.10;;
61356;SDS011;47227;46.752;23.576;2023-04-06T18:25:02;7.60;;;6.60;;
61356;SDS011;47227;46.752;23.576;2023-04-06T18:28:35;7.90;;;6.40;;
61356;SDS011;47227;46.752;23.576;2023-04-06T18:31:45;7.90;;;5.90;;
61356;SDS011;47227;46.752;23.576;2023-04-06T18:34:56;8.20;;;7.30;;
61356;SDS011;47227;46.752;23.576;2023-04-06T18:37:48;7.20;;;6.50;;
61356;SDS011;47227;46.752;23.576;2023-04-06T18:40:48;9.70;;;8.20;;
61356;SDS011;47227;46.752;23.576;2023-04-06T18:44:10;8.80;;;7.40;;
61356;SDS011;47227;46.752;23.576;2023-04-06T18:47:16;18.10;;;10.60;;
61356;SDS011;47227;46.752;23.576;2023-04-06T18:49:49;17.80;;;10.90;;
61356;SDS011;47227;46.752;23.576;2023-04-06T18:52:18;10.10;;;9.00;;
61356;SDS011;47227;46.752;23.576;2023-04-06T18:55:35;12.80;;;9.50;;
61356;SDS011;47227;46.752;23.576;2023-04-06T18:58:40;12.50;;;9.40;;
61356;SDS011;47227;46.752;23.576;2023-04-06T19:01:50;10.70;;;8.30;;
61356;SDS011;47227;46.752;23.576;2023-04-06T19:05:39;9.30;;;7.00;;
61356;SDS011;47227;46.752;23.576;2023-04-06T19:08:48;9.30;;;7.20;;
61356;SDS011;47227;46.752;23.576;2023-04-06T19:12:20;7.50;;;6.70;;
61356;SDS011;47227;46.752;23.576;2023-04-06T19:15:17;8.10;;;7.30;;
61356;SDS011;47227;46.752;23.576;2023-04-06T19:18:18;9.30;;;7.50;;
61356;SDS011;47227;46.752;23.576;2023-04-06T19:21:39;9.20;;;8.00;;
61356;SDS011;47227;46.752;23.576;2023-04-06T19:24:51;10.20;;;8.30;;
61356;SDS011;47227;46.752;23.576;2023-04-06T19:27:54;9.20;;;8.30;;
61356;SDS011;47227;46.752;23.576;2023-04-06T19:31:06;8.90;;;7.40;;
61356;SDS011;47227;46.752;23.576;2023-04-06T19:33:37;10.40;;;8.30;;
61356;SDS011;47227;46.752;23.576;2023-04-06T19:36:08;9.50;;;8.20;;
61356;SDS011;47227;46.752;23.576;2023-04-06T19:38:41;10.00;;;8.80;;
61356;SDS011;47227;46.752;23.576;2023-04-06T19:41:09;9.70;;;8.30;;
61356;SDS011;47227;46.752;23.576;2023-04-06T19:43:42;9.70;;;8.30;;
61356;SDS011;47227;46.752;23.576;2023-04-06T19:46:10;10.40;;;8.80;;
61356;SDS011;47227;46.752;23.576;2023-04-06T19:48:40;9.60;;;8.20;;
61356;SDS011;47227;46.752;23.576;2023-04-06T19:51:08;10.30;;;8.10;;
61356;SDS011;47227;46.752;23.576;2023-04-06T19:53:36;10.10;;;8.60;;
61356;SDS011;47227;46.752;23.576;2023-04-06T19:56:04;9.00;;;7.80;;
61356;SDS011;47227;46.752;23.576;2023-04-06T19:58:32;9.90;;;8.10;;
61356;SDS011;47227;46.752;23.576;2023-04-06T20:01:00;15.90;;;11.00;;
61356;SDS011;47227;46.752;23.576;2023-04-06T20:03:29;20.00;;;12.10;;
61356;SDS011;47227;46.752;23.576;2023-04-06T20:05:58;11.60;;;8.40;;
61356;SDS011;47227;46.752;23.576;2023-04-06T20:08:26;14.90;;;10.70;;
61356;SDS011;47227;46.752;23.576;2023-04-06T20:11:03;12.20;;;8.90;;
61356;SDS011;47227;46.752;23.576;2023-04-06T20:13:34;8.70;;;7.10;;
61356;SDS011;47227;46.752;23.576;2023-04-06T20:16:03;9.60;;;8.00;;
61356;SDS011;47227;46.752;23.576;2023-04-06T20:18:31;10.10;;;7.80;;
61356;SDS011;47227;46.752;23.576;2023-04-06T20:21:00;8.00;;;7.20;;
61356;SDS011;47227;46.752;23.576;2023-04-06T20:23:28;8.30;;;7.40;;
61356;SDS011;47227;46.752;23.576;2023-04-06T20:25:56;8.00;;;7.20;;